createdAt,value
2019-04-26T00:02:20.520Z,2.03
2019-04-26T00:04:49.269Z,1.90
2019-04-26T00:07:17.816Z,2.00
2019-04-26T00:09:47.769Z,2.17
2019-04-26T00:12:20.591Z,1.80
2019-04-26T00:14:51.053Z,1.97
2019-04-26T00:17:23.859Z,2.20
2019-04-26T00:19:52.637Z,2.40
2019-04-26T00:22:21.419Z,1.97
2019-04-26T00:24:50.042Z,2.10
2019-04-26T00:27:19.044Z,2.30
2019-04-26T00:29:47.541Z,2.20
2019-04-26T00:32:17.207Z,2.10
2019-04-26T00:34:45.771Z,2.40
2019-04-26T00:37:14.246Z,2.20
2019-04-26T00:39:42.782Z,2.30
2019-04-26T00:42:12.183Z,2.67
2019-04-26T00:44:41.728Z,2.63
2019-04-26T00:47:13.615Z,2.27
2019-04-26T00:49:43.849Z,2.37
2019-04-26T00:52:15.663Z,2.50
2019-04-26T00:54:45.344Z,2.60
2019-04-26T00:57:15.959Z,2.30
2019-04-26T00:59:44.681Z,2.37
2019-04-26T01:02:18.624Z,2.73
2019-04-26T01:04:47.170Z,2.67
2019-04-26T01:07:15.740Z,2.60
2019-04-26T01:09:44.211Z,2.70
2019-04-26T01:12:12.742Z,2.63
2019-04-26T01:14:41.213Z,2.60
2019-04-26T01:17:09.773Z,2.27
2019-04-26T01:19:39.290Z,2.50
2019-04-26T01:22:10.873Z,2.90
2019-04-26T01:24:42.419Z,2.30
2019-04-26T01:27:12.438Z,2.60
2019-04-26T01:29:42.173Z,2.50
2019-04-26T01:32:12.789Z,2.60
2019-04-26T01:34:43.370Z,2.57
2019-04-26T01:37:12.541Z,2.43
2019-04-26T01:39:45.860Z,2.20
2019-04-26T01:42:26.310Z,2.07
2019-04-26T01:44:59.573Z,2.40
2019-04-26T01:47:28.640Z,2.30
2019-04-26T01:49:57.544Z,2.40
2019-04-26T01:52:26.360Z,1.90
2019-04-26T01:54:55.223Z,1.83
2019-04-26T01:57:27.283Z,1.63
2019-04-26T01:59:59.105Z,1.83
2019-04-26T02:02:32.089Z,1.70
2019-04-26T02:05:02.435Z,1.60
2019-04-26T02:07:41.442Z,1.90
2019-04-26T02:10:15.906Z,1.70
2019-04-26T02:12:46.564Z,1.80
2019-04-26T02:15:16.021Z,1.70
2019-04-26T02:17:45.940Z,1.60
2019-04-26T02:20:16.112Z,1.40
2019-04-26T02:22:49.363Z,1.27
2019-04-26T02:25:17.940Z,1.27
2019-04-26T02:27:46.581Z,1.27
2019-04-26T02:30:15.232Z,1.37
2019-04-26T02:32:43.896Z,1.40
2019-04-26T02:35:12.721Z,1.33
2019-04-26T02:37:41.767Z,1.33
2019-04-26T02:40:13.337Z,1.43
2019-04-26T02:42:43.841Z,1.60
2019-04-26T02:45:42.315Z,1.20
2019-04-26T02:48:18.267Z,1.07
2019-04-26T02:51:04.313Z,1.23
2019-04-26T02:53:41.678Z,1.10
2019-04-26T02:56:18.912Z,1.20
2019-04-26T02:58:59.295Z,1.27
2019-04-26T03:01:31.668Z,1.40
2019-04-26T03:04:00.417Z,1.17
2019-04-26T03:06:33.873Z,1.40
2019-04-26T03:09:05.862Z,1.20
2019-04-26T03:11:38.969Z,1.20
2019-04-26T03:14:12.614Z,1.30
2019-04-26T03:16:45.788Z,1.40
2019-04-26T03:19:19.072Z,1.30
2019-04-26T03:22:17.771Z,1.33
2019-04-26T03:25:04.387Z,1.30
2019-04-26T03:27:50.542Z,1.10
2019-04-26T03:30:23.689Z,1.13
2019-04-26T03:32:58.537Z,1.30
2019-04-26T03:36:01.809Z,1.30
2019-04-26T03:38:52.045Z,1.40
2019-04-26T03:42:05.561Z,1.30
2019-04-26T03:44:41.096Z,1.53
2019-04-26T03:47:12.949Z,1.33
2019-04-26T03:49:47.448Z,1.50
2019-04-26T03:52:44.100Z,1.10
2019-04-26T03:55:30.130Z,1.30
2019-04-26T03:58:12.058Z,1.07
2019-04-26T04:00:47.060Z,1.30
2019-04-26T04:03:26.488Z,1.30
2019-04-26T04:05:56.986Z,1.20
2019-04-26T04:08:49.324Z,1.60
2019-04-26T04:11:23.673Z,1.23
2019-04-26T04:13:55.286Z,1.50
2019-04-26T04:16:30.151Z,1.30
2019-04-26T04:19:07.577Z,1.40
2019-04-26T04:22:01.576Z,1.10
2019-04-26T04:24:35.882Z,1.30
2019-04-26T04:27:19.151Z,1.43
2019-04-26T04:29:55.620Z,1.20
2019-04-26T04:32:26.872Z,1.13
2019-04-26T04:34:58.155Z,1.13
2019-04-26T04:37:29.712Z,1.10
2019-04-26T04:40:17.328Z,1.30
2019-04-26T04:42:56.214Z,1.20
2019-04-26T04:45:54.512Z,1.03
2019-04-26T04:48:36.195Z,1.00
2019-04-26T04:51:25.932Z,1.30
2019-04-26T04:54:09.417Z,1.00
2019-04-26T05:00:00.959Z,0.90
2019-04-26T05:02:54.927Z,0.93
2019-04-26T05:05:47.189Z,0.77
2019-04-26T05:08:24.719Z,0.80
2019-04-26T05:11:15.858Z,0.70
2019-04-26T05:13:47.852Z,0.80
2019-04-26T05:16:38.411Z,0.70
2019-04-26T05:19:38.365Z,0.60
2019-04-26T05:22:29.426Z,0.50
2019-04-26T05:25:21.687Z,0.50
2019-04-26T05:28:20.093Z,0.70
2019-04-26T05:31:02.026Z,0.83
2019-04-26T05:33:33.661Z,1.40
2019-04-26T05:36:09.633Z,1.27
2019-04-26T05:38:41.371Z,1.00
2019-04-26T05:41:30.242Z,1.47
2019-04-26T05:44:06.509Z,1.40
2019-04-26T05:46:45.564Z,0.90
2019-04-26T05:49:44.244Z,0.80
2019-04-26T05:52:48.301Z,0.90
2019-04-26T05:55:24.305Z,0.87
2019-04-26T05:58:09.211Z,0.80
2019-04-26T06:01:10.287Z,0.87
2019-04-26T06:04:17.362Z,0.90
2019-04-26T06:07:11.523Z,0.90
2019-04-26T06:10:11.465Z,0.90
2019-04-26T06:13:05.367Z,1.00
2019-04-26T06:15:52.947Z,1.17
2019-04-26T06:18:45.474Z,0.70
2019-04-26T06:21:25.577Z,1.10
2019-04-26T06:24:06.009Z,1.27
2019-04-26T06:27:12.140Z,1.20
2019-04-26T06:29:53.843Z,1.10
2019-04-26T06:32:36.205Z,1.00
2019-04-26T06:35:13.975Z,1.10
2019-04-26T06:38:02.029Z,0.80
2019-04-26T06:40:55.969Z,1.00
2019-04-26T06:43:32.705Z,1.00
2019-04-26T06:46:26.761Z,1.10
2019-04-26T06:49:16.979Z,1.80
2019-04-26T06:52:08.432Z,0.80
2019-04-26T06:54:51.472Z,0.90
2019-04-26T06:57:59.931Z,0.87
2019-04-26T07:01:05.432Z,0.83
2019-04-26T07:04:09.881Z,0.80
2019-04-26T07:06:44.483Z,0.80
2019-04-26T07:09:15.175Z,0.60
2019-04-26T07:11:48.367Z,0.60
2019-04-26T07:14:43.760Z,0.70
2019-04-26T07:17:23.983Z,0.70
2019-04-26T07:20:20.790Z,0.77
2019-04-26T07:23:02.176Z,1.40
2019-04-26T07:26:00.236Z,1.30
2019-04-26T07:29:06.898Z,0.80
2019-04-26T07:31:55.126Z,0.60
2019-04-26T07:34:44.617Z,1.00
2019-04-26T07:41:11.478Z,1.30
2019-04-26T07:44:22.779Z,1.57
2019-04-26T07:46:57.436Z,1.60
2019-04-26T07:49:51.404Z,2.20
2019-04-26T07:52:44.008Z,1.47
2019-04-26T07:55:30.468Z,1.30
2019-04-26T07:58:27.313Z,1.00
2019-04-26T08:01:38.043Z,1.10
2019-04-26T08:04:11.548Z,0.90
2019-04-26T08:06:45.130Z,0.93
2019-04-26T08:09:26.539Z,1.23
2019-04-26T08:11:53.916Z,1.00
2019-04-26T08:14:31.868Z,1.13
2019-04-26T08:17:16.625Z,1.03
2019-04-26T08:20:11.422Z,1.47
2019-04-26T08:22:43.881Z,1.10
2019-04-26T08:25:17.524Z,0.90
2019-04-26T08:27:47.071Z,0.70
2019-04-26T08:30:19.318Z,0.90
2019-04-26T08:33:02.191Z,0.90
2019-04-26T08:35:32.881Z,0.90
2019-04-26T08:38:08.083Z,0.80
2019-04-26T08:40:35.388Z,0.97
2019-04-26T08:43:22.932Z,0.70
2019-04-26T08:46:03.113Z,1.00
2019-04-26T08:48:32.506Z,1.00
2019-04-26T08:51:04.928Z,1.57
2019-04-26T08:53:36.611Z,1.40
2019-04-26T08:56:07.234Z,1.07
2019-04-26T08:58:38.851Z,1.63
2019-04-26T09:01:14.501Z,1.40
2019-04-26T09:04:03.961Z,1.43
2019-04-26T09:06:39.244Z,1.37
2019-04-26T09:09:24.004Z,0.97
2019-04-26T09:11:59.719Z,1.00
2019-04-26T09:14:30.342Z,0.90
2019-04-26T09:16:58.847Z,0.97
2019-04-26T09:19:30.551Z,1.27
2019-04-26T09:22:12.236Z,1.50
2019-04-26T09:24:31.169Z,1.20
2019-04-26T09:27:12.843Z,0.80
2019-04-26T09:30:11.498Z,1.40
2019-04-26T09:32:41.677Z,1.60
2019-04-26T09:35:11.242Z,1.50
2019-04-26T09:37:41.860Z,1.00
2019-04-26T09:40:19.739Z,1.10
2019-04-26T09:42:47.654Z,1.70
2019-04-26T09:45:34.711Z,1.80
2019-04-26T09:48:04.804Z,1.40
2019-04-26T09:50:40.992Z,1.20
2019-04-26T09:53:09.478Z,1.13
2019-04-26T09:55:38.140Z,1.17
2019-04-26T09:58:08.687Z,1.30
2019-04-26T10:00:37.403Z,1.50
2019-04-26T10:03:09.318Z,1.20
2019-04-26T10:05:36.185Z,1.60
2019-04-26T10:08:08.355Z,1.20
2019-04-26T10:10:36.405Z,0.90
2019-04-26T10:13:06.835Z,0.90
2019-04-26T10:15:42.979Z,0.90
2019-04-26T10:18:11.526Z,1.10
2019-04-26T10:20:39.989Z,1.00
2019-04-26T10:23:08.590Z,0.90
2019-04-26T10:25:37.025Z,0.80
2019-04-26T10:28:05.482Z,1.00
2019-04-26T10:30:38.373Z,1.23
2019-04-26T10:33:05.434Z,0.80
2019-04-26T10:35:38.163Z,1.00
2019-04-26T10:38:06.838Z,1.40
2019-04-26T10:40:35.990Z,1.20
2019-04-26T10:43:06.386Z,1.73
2019-04-26T10:45:34.861Z,1.23
2019-04-26T10:48:03.315Z,1.27
2019-04-26T10:50:33.044Z,1.73
2019-04-26T10:53:06.580Z,1.40
2019-04-26T10:55:46.389Z,1.27
2019-04-26T10:58:27.200Z,1.60
2019-04-26T11:00:57.385Z,1.87
2019-04-26T11:03:26.830Z,1.27
2019-04-26T11:05:55.471Z,1.47
2019-04-26T11:08:23.966Z,1.00
2019-04-26T11:10:52.441Z,1.00
2019-04-26T11:13:20.924Z,1.10
2019-04-26T11:15:49.497Z,2.30
2019-04-26T11:18:19.924Z,0.97
2019-04-26T11:20:48.314Z,0.80
2019-04-26T11:23:16.876Z,0.90
2019-04-26T11:25:45.442Z,0.80
2019-04-26T11:28:17.245Z,0.80
2019-04-26T11:30:44.254Z,0.70
2019-04-26T11:33:12.941Z,0.90
2019-04-26T11:35:41.422Z,1.47
2019-04-26T11:38:09.887Z,1.00
2019-04-26T11:40:38.332Z,1.00
2019-04-26T11:43:06.882Z,1.10
2019-04-26T11:45:35.410Z,1.00
2019-04-26T11:48:03.955Z,0.80
2019-04-26T11:50:32.418Z,1.20
2019-04-26T11:53:00.893Z,0.70
2019-04-26T11:55:31.521Z,1.00
2019-04-26T11:58:00.040Z,1.20
2019-04-26T12:00:32.965Z,1.40
2019-04-26T12:03:01.467Z,1.37
2019-04-26T12:05:43.260Z,1.30
2019-04-26T12:08:13.371Z,0.80
2019-04-26T12:10:44.478Z,0.80
2019-04-26T12:13:12.221Z,0.80
2019-04-26T12:15:43.706Z,0.67
2019-04-26T12:18:11.261Z,0.93
2019-04-26T12:20:39.753Z,0.97
2019-04-26T12:23:08.219Z,1.10
2019-04-26T12:25:38.729Z,0.90
2019-04-26T12:28:07.402Z,2.47
2019-04-26T12:30:36.022Z,1.50
2019-04-26T12:33:04.656Z,1.20
2019-04-26T12:35:33.139Z,1.50
2019-04-26T12:38:01.600Z,1.30
2019-04-26T12:40:30.106Z,1.00
2019-04-26T12:42:58.587Z,1.00
2019-04-26T12:45:40.777Z,1.10
2019-04-26T12:48:12.451Z,1.00
2019-04-26T12:50:41.148Z,1.00
2019-04-26T12:53:09.606Z,1.10
2019-04-26T12:55:38.138Z,1.57
2019-04-26T12:58:06.626Z,0.70
2019-04-26T13:00:37.452Z,0.80
2019-04-26T13:03:06.259Z,1.40
2019-04-26T13:05:34.787Z,1.00
2019-04-26T13:08:03.228Z,1.00
2019-04-26T13:10:35.552Z,1.10
2019-04-26T13:13:10.862Z,1.10
2019-04-26T13:16:04.782Z,1.30
2019-04-26T13:18:33.243Z,2.20
2019-04-26T13:21:03.091Z,1.60
2019-04-26T13:23:32.033Z,1.20
2019-04-26T13:26:01.564Z,1.10
2019-04-26T13:28:30.153Z,1.10
2019-04-26T13:30:58.679Z,0.97
2019-04-26T13:33:27.876Z,1.00
2019-04-26T13:36:04.619Z,1.17
2019-04-26T13:38:27.513Z,1.20
2019-04-26T13:40:59.579Z,1.20
2019-04-26T13:43:27.076Z,1.17
2019-04-26T13:46:13.847Z,1.20
2019-04-26T13:48:46.370Z,1.70
2019-04-26T13:51:28.332Z,1.00
2019-04-26T13:53:56.789Z,1.03
2019-04-26T13:56:25.247Z,1.10
2019-04-26T13:58:54.457Z,1.50
2019-04-26T14:01:24.770Z,1.30
2019-04-26T14:03:53.314Z,1.43
2019-04-26T14:06:21.869Z,1.10
2019-04-26T14:08:53.966Z,0.63
2019-04-26T14:11:27.909Z,0.80
2019-04-26T14:13:50.838Z,0.90
2019-04-26T14:16:21.172Z,0.60
2019-04-26T14:18:49.568Z,0.90
2019-04-26T14:21:18.152Z,0.90
2019-04-26T14:24:04.012Z,1.20
2019-04-26T14:26:41.475Z,1.00
2019-04-26T14:29:10.228Z,1.10
2019-04-26T14:31:38.715Z,1.07
2019-04-26T14:34:07.370Z,3.10
2019-04-26T14:36:35.911Z,1.17
2019-04-26T14:39:10.593Z,1.00
2019-04-26T14:41:40.101Z,1.10
2019-04-26T14:44:15.646Z,2.10
2019-04-26T14:46:48.758Z,1.13
2019-04-26T14:49:09.643Z,1.10
2019-04-26T14:51:40.544Z,0.90
2019-04-26T14:54:11.453Z,0.80
2019-04-26T14:56:51.502Z,1.23
2019-04-26T14:59:10.284Z,1.00
2019-04-26T15:01:55.907Z,1.20
2019-04-26T15:04:44.098Z,1.20
2019-04-26T15:07:12.775Z,0.87
2019-04-26T15:09:42.855Z,0.70
2019-04-26T15:12:12.489Z,0.90
2019-04-26T15:14:42.271Z,0.83
2019-04-26T15:17:12.286Z,0.83
2019-04-26T15:19:45.933Z,0.70
2019-04-26T15:22:12.234Z,0.80
2019-04-26T15:24:42.166Z,0.60
2019-04-26T15:27:10.783Z,0.70
2019-04-26T15:29:39.324Z,0.70
2019-04-26T15:32:07.955Z,0.70
2019-04-26T15:34:51.367Z,0.80
2019-04-26T15:37:25.008Z,0.83
2019-04-26T15:39:56.782Z,0.50
2019-04-26T15:42:40.640Z,0.80
2019-04-26T15:45:11.006Z,0.90
2019-04-26T15:47:58.803Z,0.70
2019-04-26T15:50:31.664Z,0.70
2019-04-26T15:53:00.127Z,1.00
2019-04-26T15:55:33.838Z,0.70
2019-04-26T15:58:02.686Z,1.10
2019-04-26T16:00:32.763Z,1.10
2019-04-26T16:03:03.864Z,1.00
2019-04-26T16:05:31.289Z,1.00
2019-04-26T16:08:01.842Z,1.00
2019-04-26T16:10:37.066Z,1.00
2019-04-26T16:13:15.797Z,0.90
2019-04-26T16:15:32.247Z,1.10
2019-04-26T16:18:03.921Z,1.30
2019-04-26T16:20:37.470Z,0.90
2019-04-26T16:23:06.208Z,1.00
2019-04-26T16:25:34.336Z,1.00
2019-04-26T16:28:19.325Z,0.90
2019-04-26T16:30:49.423Z,1.00
2019-04-26T16:33:28.519Z,0.80
2019-04-26T16:35:57.391Z,0.80
2019-04-26T16:38:33.511Z,0.90
2019-04-26T16:41:03.304Z,0.93
2019-04-26T16:43:37.692Z,0.90
2019-04-26T16:46:02.395Z,0.90
2019-04-26T16:48:30.804Z,0.90
2019-04-26T16:51:03.677Z,0.90
2019-04-26T16:53:43.731Z,1.10
2019-04-26T16:55:59.971Z,0.90
2019-04-26T16:58:30.923Z,0.90
2019-04-26T17:00:58.788Z,0.80
2019-04-26T17:03:27.461Z,0.80
2019-04-26T17:06:04.623Z,1.00
2019-04-26T17:08:32.241Z,0.90
2019-04-26T17:11:08.260Z,1.10
2019-04-26T17:13:48.383Z,1.13
2019-04-26T17:16:12.857Z,0.90
2019-04-26T17:18:42.670Z,0.90
2019-04-26T17:21:13.339Z,1.23
2019-04-26T17:24:05.944Z,0.90
2019-04-26T17:26:36.332Z,1.07
2019-04-26T17:29:03.650Z,1.10
2019-04-26T17:31:33.597Z,0.90
2019-04-26T17:34:03.285Z,1.10
2019-04-26T17:36:34.405Z,1.27
2019-04-26T17:39:03.698Z,0.90
2019-04-26T17:41:33.259Z,0.90
2019-04-26T17:44:08.282Z,1.20
2019-04-26T17:46:32.605Z,1.40
2019-04-26T17:49:01.248Z,0.80
2019-04-26T17:51:32.460Z,0.80
2019-04-26T17:54:21.130Z,0.70
2019-04-26T17:56:31.501Z,1.30
2019-04-26T17:59:03.166Z,1.40
2019-04-26T18:01:44.374Z,1.00
2019-04-26T18:04:01.499Z,1.30
2019-04-26T18:06:30.223Z,1.10
2019-04-26T18:08:58.750Z,1.20
2019-04-26T18:11:27.384Z,1.00
2019-04-26T18:13:56.013Z,1.10
2019-04-26T18:16:29.176Z,1.80
2019-04-26T18:18:59.265Z,1.40
2019-04-26T18:21:45.483Z,0.90
2019-04-26T18:24:14.013Z,1.20
2019-04-26T18:26:42.519Z,1.00
2019-04-26T18:29:13.030Z,1.00
2019-04-26T18:31:43.737Z,0.90
2019-04-26T18:34:12.826Z,1.37
2019-04-26T18:36:43.005Z,1.40
2019-04-26T18:39:11.581Z,1.50
2019-04-26T18:41:40.173Z,0.97
2019-04-26T18:44:08.990Z,1.50
2019-04-26T18:46:48.206Z,1.17
2019-04-26T18:49:22.525Z,3.03
2019-04-26T18:51:48.494Z,2.90
2019-04-26T18:54:18.910Z,2.00
2019-04-26T18:56:51.459Z,1.67
2019-04-26T18:59:19.993Z,1.10
2019-04-26T19:01:48.671Z,1.10
2019-04-26T19:04:17.256Z,1.30
2019-04-26T19:06:45.748Z,1.10
2019-04-26T19:09:15.640Z,1.40
2019-04-26T19:11:48.719Z,1.07
2019-04-26T19:14:16.014Z,1.10
2019-04-26T19:16:50.606Z,1.50
2019-04-26T19:19:25.368Z,1.40
2019-04-26T19:21:54.566Z,1.40
2019-04-26T19:24:23.188Z,1.30
2019-04-26T19:26:51.774Z,1.30
2019-04-26T19:29:27.016Z,1.30
2019-04-26T19:31:52.260Z,1.60
2019-04-26T19:34:21.932Z,1.37
2019-04-26T19:36:52.330Z,1.23
2019-04-26T19:39:31.700Z,1.67
2019-04-26T19:41:57.327Z,1.53
2019-04-26T19:44:24.046Z,1.70
2019-04-26T19:46:58.091Z,1.53
2019-04-26T19:49:40.197Z,1.30
2019-04-26T19:52:13.138Z,1.00
2019-04-26T19:54:55.110Z,1.53
2019-04-26T19:57:25.374Z,1.40
2019-04-26T19:59:53.850Z,1.10
2019-04-26T20:02:22.434Z,1.40
2019-04-26T20:04:51.429Z,1.07
2019-04-26T20:07:19.986Z,1.10
2019-04-26T20:09:48.474Z,1.40
2019-04-26T20:12:17.004Z,1.13
2019-04-26T20:14:50.981Z,1.23
2019-04-26T20:17:19.880Z,1.30
2019-04-26T20:19:47.635Z,1.20
2019-04-26T20:22:16.270Z,1.40
2019-04-26T20:24:48.538Z,1.30
2019-04-26T20:27:20.382Z,1.20
2019-04-26T20:29:47.426Z,0.77
2019-04-26T20:32:24.003Z,0.80
2019-04-26T20:34:56.910Z,0.90
2019-04-26T20:37:25.817Z,1.00
2019-04-26T20:40:15.489Z,1.00
2019-04-26T20:42:24.555Z,1.00
2019-04-26T20:44:53.802Z,1.20
2019-04-26T20:47:22.503Z,0.93
2019-04-26T20:50:00.793Z,0.80
2019-04-26T20:52:24.784Z,1.00
2019-04-26T20:54:54.052Z,1.03
2019-04-26T20:57:21.979Z,1.10
2019-04-26T20:59:52.050Z,1.00
2019-04-26T21:02:24.646Z,1.10
2019-04-26T21:04:51.546Z,0.90
2019-04-26T21:07:21.784Z,0.90
2019-04-26T21:09:50.436Z,0.83
2019-04-26T21:12:19.173Z,0.80
2019-04-26T21:14:47.804Z,1.27
2019-04-26T21:17:19.462Z,1.80
2019-04-26T21:19:49.912Z,1.20
2019-04-26T21:22:18.322Z,1.20
2019-04-26T21:24:58.315Z,1.10
2019-04-26T21:27:29.889Z,1.00
2019-04-26T21:30:04.185Z,1.20
2019-04-26T21:32:37.690Z,1.30
2019-04-26T21:35:08.935Z,1.27
2019-04-26T21:37:39.046Z,1.07
2019-04-26T21:40:26.131Z,1.10
2019-04-26T21:42:59.343Z,1.20
2019-04-26T21:45:28.228Z,1.13
2019-04-26T21:47:55.063Z,1.50
2019-04-26T21:50:23.563Z,1.33
2019-04-26T21:52:54.008Z,1.50
2019-04-26T21:55:26.579Z,1.30
2019-04-26T21:57:53.803Z,1.10
2019-04-26T22:00:24.884Z,0.90
2019-04-26T22:02:53.557Z,1.10
2019-04-26T22:05:22.215Z,1.27
2019-04-26T22:07:50.676Z,1.00
2019-04-26T22:10:20.883Z,1.30
2019-04-26T22:12:49.455Z,1.00
2019-04-26T22:15:37.520Z,1.30
2019-04-26T22:18:14.883Z,1.10
2019-04-26T22:20:50.918Z,1.20
2019-04-26T22:23:21.351Z,1.10
2019-04-26T22:25:50.502Z,1.10
2019-04-26T22:28:18.972Z,0.90
2019-04-26T22:30:47.456Z,1.13
2019-04-26T22:33:15.973Z,1.37
2019-04-26T22:35:44.546Z,1.50
2019-04-26T22:38:13.025Z,1.20
2019-04-26T22:40:41.495Z,1.10
2019-04-26T22:43:20.665Z,1.20
2019-04-26T22:45:50.816Z,0.93
2019-04-26T22:48:25.096Z,1.10
2019-04-26T22:50:52.076Z,1.40
2019-04-26T22:53:25.372Z,1.43
2019-04-26T22:55:53.540Z,1.80
2019-04-26T22:58:25.590Z,1.70
2019-04-26T23:00:53.727Z,1.53
2019-04-26T23:03:24.020Z,1.00
2019-04-26T23:05:53.727Z,1.20
2019-04-26T23:08:23.657Z,1.50
2019-04-26T23:10:53.908Z,1.30
2019-04-26T23:13:24.021Z,1.60
2019-04-26T23:16:11.443Z,1.20
2019-04-26T23:18:56.533Z,1.60
2019-04-26T23:21:35.781Z,1.50
2019-04-26T23:24:04.422Z,1.70
2019-04-26T23:26:33.478Z,1.47
2019-04-26T23:29:03.750Z,1.40
2019-04-26T23:31:33.480Z,1.50
2019-04-26T23:34:02.974Z,1.80
2019-04-26T23:36:31.503Z,1.70
2019-04-26T23:39:00.085Z,1.77
2019-04-26T23:41:28.570Z,1.83
2019-04-26T23:44:02.909Z,1.87
2019-04-26T23:46:27.298Z,1.80
2019-04-26T23:48:56.015Z,1.20
2019-04-26T23:51:26.220Z,1.60
2019-04-26T23:53:57.646Z,1.60
2019-04-26T23:56:25.450Z,1.70
2019-04-26T23:58:54.090Z,1.70
